sensor_id;sensor_type;location;lat;lon;timestamp;P1;durP1;ratioP1;P2;durP2;ratioP2
48993;SDS011;34804;49.214;12.276;2023-03-01T00:01:13;26.27;;;13.40;;
48993;SDS011;34804;49.214;12.276;2023-03-01T00:03:44;30.88;;;14.13;;
48993;SDS011;34804;49.214;12.276;2023-03-01T00:06:11;28.27;;;13.37;;
48993;SDS011;34804;49.214;12.276;2023-03-01T00:08:39;25.13;;;12.93;;
48993;SDS011;34804;49.214;12.276;2023-03-01T00:11:07;28.40;;;13.03;;
48993;SDS011;34804;49.214;12.276;2023-03-01T00:13:36;27.47;;;13.10;;
48993;SDS011;34804;49.214;12.276;2023-03-01T00:16:04;22.50;;;12.90;;
48993;SDS011;34804;49.214;12.276;2023-03-01T00:18:32;26.63;;;13.53;;
48993;SDS011;34804;49.214;12.276;2023-03-01T00:20:59;21.87;;;11.77;;
48993;SDS011;34804;49.214;12.276;2023-03-01T00:23:26;27.77;;;12.23;;
48993;SDS011;34804;49.214;12.276;2023-03-01T00:25:53;23.97;;;12.73;;
48993;SDS011;34804;49.214;12.276;2023-03-01T00:28:20;26.90;;;12.30;;
48993;SDS011;34804;49.214;12.276;2023-03-01T00:30:47;27.33;;;13.53;;
48993;SDS011;34804;49.214;12.276;2023-03-01T00:33:14;28.13;;;13.10;;
48993;SDS011;34804;49.214;12.276;2023-03-01T00:35:41;24.47;;;13.07;;
48993;SDS011;34804;49.214;12.276;2023-03-01T00:38:08;28.93;;;13.23;;
48993;SDS011;34804;49.214;12.276;2023-03-01T00:40:35;29.70;;;13.60;;
48993;SDS011;34804;49.214;12.276;2023-03-01T00:43:03;27.47;;;13.03;;
48993;SDS011;34804;49.214;12.276;2023-03-01T00:45:30;26.73;;;13.13;;
48993;SDS011;34804;49.214;12.276;2023-03-01T00:47:57;28.60;;;12.80;;
48993;SDS011;34804;49.214;12.276;2023-03-01T00:50:24;29.43;;;13.23;;
48993;SDS011;34804;49.214;12.276;2023-03-01T00:52:57;24.27;;;11.13;;
48993;SDS011;34804;49.214;12.276;2023-03-01T00:58:23;24.50;;;12.83;;
48993;SDS011;34804;49.214;12.276;2023-03-01T01:00:52;25.87;;;13.03;;
48993;SDS011;34804;49.214;12.276;2023-03-01T01:03:18;25.07;;;12.73;;
48993;SDS011;34804;49.214;12.276;2023-03-01T01:05:45;27.93;;;13.83;;
48993;SDS011;34804;49.214;12.276;2023-03-01T01:08:12;26.00;;;13.17;;
48993;SDS011;34804;49.214;12.276;2023-03-01T01:10:39;27.13;;;12.17;;
48993;SDS011;34804;49.214;12.276;2023-03-01T01:13:06;27.87;;;12.03;;
48993;SDS011;34804;49.214;12.276;2023-03-01T01:15:34;26.50;;;13.30;;
48993;SDS011;34804;49.214;12.276;2023-03-01T01:18:01;25.40;;;12.70;;
48993;SDS011;34804;49.214;12.276;2023-03-01T01:20:28;24.10;;;13.43;;
48993;SDS011;34804;49.214;12.276;2023-03-01T01:22:55;26.53;;;13.97;;
48993;SDS011;34804;49.214;12.276;2023-03-01T01:25:21;28.17;;;13.70;;
48993;SDS011;34804;49.214;12.276;2023-03-01T01:27:51;27.83;;;13.00;;
48993;SDS011;34804;49.214;12.276;2023-03-01T01:30:18;27.57;;;12.67;;
48993;SDS011;34804;49.214;12.276;2023-03-01T01:32:44;24.63;;;11.93;;
48993;SDS011;34804;49.214;12.276;2023-03-01T01:35:11;31.47;;;12.77;;
48993;SDS011;34804;49.214;12.276;2023-03-01T01:37:38;25.87;;;12.90;;
48993;SDS011;34804;49.214;12.276;2023-03-01T01:40:05;24.33;;;11.30;;
48993;SDS011;34804;49.214;12.276;2023-03-01T01:42:32;26.87;;;12.50;;
48993;SDS011;34804;49.214;12.276;2023-03-01T01:45:24;27.80;;;13.43;;
48993;SDS011;34804;49.214;12.276;2023-03-01T01:48:03;27.70;;;14.20;;
48993;SDS011;34804;49.214;12.276;2023-03-01T01:50:38;25.93;;;12.50;;
48993;SDS011;34804;49.214;12.276;2023-03-01T01:53:10;26.47;;;13.17;;
48993;SDS011;34804;49.214;12.276;2023-03-01T01:55:42;22.97;;;11.97;;
48993;SDS011;34804;49.214;12.276;2023-03-01T01:58:12;30.23;;;13.37;;
48993;SDS011;34804;49.214;12.276;2023-03-01T02:00:43;30.70;;;13.23;;
48993;SDS011;34804;49.214;12.276;2023-03-01T02:03:14;26.80;;;13.10;;
48993;SDS011;34804;49.214;12.276;2023-03-01T02:08:21;29.90;;;14.37;;
48993;SDS011;34804;49.214;12.276;2023-03-01T02:10:51;26.10;;;13.67;;
48993;SDS011;34804;49.214;12.276;2023-03-01T02:13:18;30.30;;;14.23;;
48993;SDS011;34804;49.214;12.276;2023-03-01T02:15:45;29.33;;;14.20;;
48993;SDS011;34804;49.214;12.276;2023-03-01T02:18:13;32.33;;;14.63;;
48993;SDS011;34804;49.214;12.276;2023-03-01T02:23:41;28.30;;;15.10;;
48993;SDS011;34804;49.214;12.276;2023-03-01T02:26:23;32.67;;;15.27;;
48993;SDS011;34804;49.214;12.276;2023-03-01T02:29:01;27.50;;;13.13;;
48993;SDS011;34804;49.214;12.276;2023-03-01T02:31:27;27.00;;;13.20;;
48993;SDS011;34804;49.214;12.276;2023-03-01T02:34:12;29.48;;;13.88;;
48993;SDS011;34804;49.214;12.276;2023-03-01T02:36:43;28.10;;;13.37;;
48993;SDS011;34804;49.214;12.276;2023-03-01T02:39:13;27.67;;;12.73;;
48993;SDS011;34804;49.214;12.276;2023-03-01T02:41:47;29.02;;;13.48;;
48993;SDS011;34804;49.214;12.276;2023-03-01T02:44:17;27.73;;;12.77;;
48993;SDS011;34804;49.214;12.276;2023-03-01T02:46:47;29.67;;;13.70;;
48993;SDS011;34804;49.214;12.276;2023-03-01T02:49:26;25.37;;;12.83;;
48993;SDS011;34804;49.214;12.276;2023-03-01T02:57:35;25.45;;;12.40;;
48993;SDS011;34804;49.214;12.276;2023-03-01T03:00:06;27.73;;;13.30;;
48993;SDS011;34804;49.214;12.276;2023-03-01T03:02:46;25.57;;;12.67;;
48993;SDS011;34804;49.214;12.276;2023-03-01T03:05:19;26.07;;;13.27;;
48993;SDS011;34804;49.214;12.276;2023-03-01T03:07:48;22.67;;;11.77;;
48993;SDS011;34804;49.214;12.276;2023-03-01T03:10:18;21.33;;;11.17;;
48993;SDS011;34804;49.214;12.276;2023-03-01T03:12:50;23.67;;;11.30;;
48993;SDS011;34804;49.214;12.276;2023-03-01T03:15:18;27.37;;;12.73;;
48993;SDS011;34804;49.214;12.276;2023-03-01T03:17:46;29.50;;;13.03;;
48993;SDS011;34804;49.214;12.276;2023-03-01T03:20:14;27.63;;;12.70;;
48993;SDS011;34804;49.214;12.276;2023-03-01T03:22:46;28.10;;;13.57;;
48993;SDS011;34804;49.214;12.276;2023-03-01T03:25:17;26.83;;;13.47;;
48993;SDS011;34804;49.214;12.276;2023-03-01T03:27:45;28.40;;;13.13;;
48993;SDS011;34804;49.214;12.276;2023-03-01T03:30:17;35.20;;;13.47;;
48993;SDS011;34804;49.214;12.276;2023-03-01T03:32:46;26.80;;;12.53;;
48993;SDS011;34804;49.214;12.276;2023-03-01T03:35:20;28.90;;;13.33;;
48993;SDS011;34804;49.214;12.276;2023-03-01T03:37:48;32.17;;;14.87;;
48993;SDS011;34804;49.214;12.276;2023-03-01T03:40:36;28.23;;;13.57;;
48993;SDS011;34804;49.214;12.276;2023-03-01T03:43:08;27.23;;;13.10;;
48993;SDS011;34804;49.214;12.276;2023-03-01T03:45:37;25.50;;;12.73;;
48993;SDS011;34804;49.214;12.276;2023-03-01T03:48:05;29.73;;;13.40;;
48993;SDS011;34804;49.214;12.276;2023-03-01T03:50:34;29.87;;;13.10;;
48993;SDS011;34804;49.214;12.276;2023-03-01T03:53:01;28.87;;;14.20;;
48993;SDS011;34804;49.214;12.276;2023-03-01T03:55:30;31.87;;;14.43;;
48993;SDS011;34804;49.214;12.276;2023-03-01T03:57:57;33.03;;;14.83;;
48993;SDS011;34804;49.214;12.276;2023-03-01T04:00:28;26.03;;;12.37;;
48993;SDS011;34804;49.214;12.276;2023-03-01T04:02:55;29.67;;;14.87;;
48993;SDS011;34804;49.214;12.276;2023-03-01T04:05:23;30.27;;;13.87;;
48993;SDS011;34804;49.214;12.276;2023-03-01T04:07:49;26.80;;;13.27;;
48993;SDS011;34804;49.214;12.276;2023-03-01T04:10:31;24.53;;;12.07;;
48993;SDS011;34804;49.214;12.276;2023-03-01T04:15:27;30.13;;;12.63;;
48993;SDS011;34804;49.214;12.276;2023-03-01T04:17:55;27.07;;;12.70;;
48993;SDS011;34804;49.214;12.276;2023-03-01T04:20:23;30.47;;;13.97;;
48993;SDS011;34804;49.214;12.276;2023-03-01T04:22:53;29.87;;;14.17;;
48993;SDS011;34804;49.214;12.276;2023-03-01T04:25:23;28.60;;;13.67;;
48993;SDS011;34804;49.214;12.276;2023-03-01T04:27:50;32.73;;;14.43;;
48993;SDS011;34804;49.214;12.276;2023-03-01T04:30:17;26.97;;;14.53;;
48993;SDS011;34804;49.214;12.276;2023-03-01T04:32:44;27.03;;;12.63;;
48993;SDS011;34804;49.214;12.276;2023-03-01T04:35:10;29.33;;;13.43;;
48993;SDS011;34804;49.214;12.276;2023-03-01T04:37:37;29.70;;;14.23;;
48993;SDS011;34804;49.214;12.276;2023-03-01T04:40:04;26.20;;;11.93;;
48993;SDS011;34804;49.214;12.276;2023-03-01T04:42:39;25.03;;;12.67;;
48993;SDS011;34804;49.214;12.276;2023-03-01T04:45:05;25.90;;;12.27;;
48993;SDS011;34804;49.214;12.276;2023-03-01T04:47:42;26.90;;;12.40;;
48993;SDS011;34804;49.214;12.276;2023-03-01T04:50:11;31.83;;;13.57;;
48993;SDS011;34804;49.214;12.276;2023-03-01T04:52:43;33.67;;;14.25;;
48993;SDS011;34804;49.214;12.276;2023-03-01T04:55:10;31.53;;;13.97;;
48993;SDS011;34804;49.214;12.276;2023-03-01T04:57:37;33.50;;;13.97;;
48993;SDS011;34804;49.214;12.276;2023-03-01T05:00:05;27.47;;;13.47;;
48993;SDS011;34804;49.214;12.276;2023-03-01T05:02:56;32.37;;;14.13;;
48993;SDS011;34804;49.214;12.276;2023-03-01T05:05:26;27.47;;;13.60;;
48993;SDS011;34804;49.214;12.276;2023-03-01T05:07:58;30.00;;;13.25;;
48993;SDS011;34804;49.214;12.276;2023-03-01T05:10:27;33.80;;;14.73;;
48993;SDS011;34804;49.214;12.276;2023-03-01T05:12:59;29.08;;;13.65;;
48993;SDS011;34804;49.214;12.276;2023-03-01T05:15:27;32.40;;;15.00;;
48993;SDS011;34804;49.214;12.276;2023-03-01T05:17:56;31.57;;;12.87;;
48993;SDS011;34804;49.214;12.276;2023-03-01T05:20:26;28.37;;;15.20;;
48993;SDS011;34804;49.214;12.276;2023-03-01T05:22:56;30.63;;;14.90;;
48993;SDS011;34804;49.214;12.276;2023-03-01T05:25:26;35.37;;;15.50;;
48993;SDS011;34804;49.214;12.276;2023-03-01T05:28:02;34.30;;;15.65;;
48993;SDS011;34804;49.214;12.276;2023-03-01T05:32:59;35.37;;;15.90;;
48993;SDS011;34804;49.214;12.276;2023-03-01T05:35:27;37.03;;;16.37;;
48993;SDS011;34804;49.214;12.276;2023-03-01T05:37:55;34.37;;;15.63;;
48993;SDS011;34804;49.214;12.276;2023-03-01T05:40:23;34.97;;;15.33;;
48993;SDS011;34804;49.214;12.276;2023-03-01T05:42:54;32.87;;;15.73;;
48993;SDS011;34804;49.214;12.276;2023-03-01T05:45:23;29.53;;;14.73;;
48993;SDS011;34804;49.214;12.276;2023-03-01T05:47:51;33.90;;;15.63;;
48993;SDS011;34804;49.214;12.276;2023-03-01T05:50:19;34.63;;;15.30;;
48993;SDS011;34804;49.214;12.276;2023-03-01T05:52:53;30.48;;;14.10;;
48993;SDS011;34804;49.214;12.276;2023-03-01T05:55:34;34.00;;;15.57;;
48993;SDS011;34804;49.214;12.276;2023-03-01T05:58:03;33.90;;;15.70;;
48993;SDS011;34804;49.214;12.276;2023-03-01T06:00:31;39.40;;;17.90;;
48993;SDS011;34804;49.214;12.276;2023-03-01T06:03:00;41.97;;;18.47;;
48993;SDS011;34804;49.214;12.276;2023-03-01T06:05:28;37.53;;;16.70;;
48993;SDS011;34804;49.214;12.276;2023-03-01T06:07:58;36.33;;;17.53;;
48993;SDS011;34804;49.214;12.276;2023-03-01T06:10:26;36.60;;;16.77;;
48993;SDS011;34804;49.214;12.276;2023-03-01T06:12:53;37.80;;;18.57;;
48993;SDS011;34804;49.214;12.276;2023-03-01T06:15:20;40.30;;;19.10;;
48993;SDS011;34804;49.214;12.276;2023-03-01T06:17:47;39.53;;;18.60;;
48993;SDS011;34804;49.214;12.276;2023-03-01T06:20:17;38.53;;;18.07;;
48993;SDS011;34804;49.214;12.276;2023-03-01T06:22:46;36.20;;;16.67;;
48993;SDS011;34804;49.214;12.276;2023-03-01T06:25:14;40.50;;;17.10;;
48993;SDS011;34804;49.214;12.276;2023-03-01T06:27:47;37.08;;;17.23;;
48993;SDS011;34804;49.214;12.276;2023-03-01T06:30:15;38.70;;;18.20;;
48993;SDS011;34804;49.214;12.276;2023-03-01T06:32:44;42.43;;;19.33;;
48993;SDS011;34804;49.214;12.276;2023-03-01T06:35:11;37.03;;;18.13;;
48993;SDS011;34804;49.214;12.276;2023-03-01T06:37:40;42.73;;;19.63;;
48993;SDS011;34804;49.214;12.276;2023-03-01T06:40:08;42.77;;;18.27;;
48993;SDS011;34804;49.214;12.276;2023-03-01T06:42:39;38.20;;;17.90;;
48993;SDS011;34804;49.214;12.276;2023-03-01T06:45:07;44.83;;;19.10;;
48993;SDS011;34804;49.214;12.276;2023-03-01T06:47:35;38.63;;;19.40;;
48993;SDS011;34804;49.214;12.276;2023-03-01T06:50:02;43.00;;;19.43;;
48993;SDS011;34804;49.214;12.276;2023-03-01T06:52:29;36.37;;;17.67;;
48993;SDS011;34804;49.214;12.276;2023-03-01T06:54:56;40.80;;;19.67;;
48993;SDS011;34804;49.214;12.276;2023-03-01T06:57:23;43.90;;;19.93;;
48993;SDS011;34804;49.214;12.276;2023-03-01T06:59:50;44.30;;;20.27;;
48993;SDS011;34804;49.214;12.276;2023-03-01T07:02:17;41.53;;;19.70;;
48993;SDS011;34804;49.214;12.276;2023-03-01T07:04:44;43.00;;;18.83;;
48993;SDS011;34804;49.214;12.276;2023-03-01T07:07:11;39.97;;;18.70;;
48993;SDS011;34804;49.214;12.276;2023-03-01T07:09:38;40.97;;;19.20;;
48993;SDS011;34804;49.214;12.276;2023-03-01T07:12:05;48.57;;;21.53;;
48993;SDS011;34804;49.214;12.276;2023-03-01T07:14:32;41.80;;;20.33;;
48993;SDS011;34804;49.214;12.276;2023-03-01T07:16:58;36.93;;;17.23;;
48993;SDS011;34804;49.214;12.276;2023-03-01T07:19:25;34.30;;;16.90;;
48993;SDS011;34804;49.214;12.276;2023-03-01T07:21:52;37.57;;;18.10;;
48993;SDS011;34804;49.214;12.276;2023-03-01T07:24:20;32.17;;;16.10;;
48993;SDS011;34804;49.214;12.276;2023-03-01T07:26:50;36.17;;;16.83;;
48993;SDS011;34804;49.214;12.276;2023-03-01T07:29:17;34.08;;;16.52;;
48993;SDS011;34804;49.214;12.276;2023-03-01T07:31:44;35.03;;;16.97;;
48993;SDS011;34804;49.214;12.276;2023-03-01T07:34:11;34.25;;;17.45;;
48993;SDS011;34804;49.214;12.276;2023-03-01T07:36:38;37.50;;;17.67;;
48993;SDS011;34804;49.214;12.276;2023-03-01T07:39:09;36.00;;;18.50;;
48993;SDS011;34804;49.214;12.276;2023-03-01T07:41:36;37.25;;;18.70;;
48993;SDS011;34804;49.214;12.276;2023-03-01T07:44:03;36.35;;;18.50;;
48993;SDS011;34804;49.214;12.276;2023-03-01T07:46:30;40.72;;;17.83;;
48993;SDS011;34804;49.214;12.276;2023-03-01T07:48:58;34.53;;;16.88;;
48993;SDS011;34804;49.214;12.276;2023-03-01T07:51:24;38.53;;;18.73;;
48993;SDS011;34804;49.214;12.276;2023-03-01T07:53:51;32.90;;;17.42;;
48993;SDS011;34804;49.214;12.276;2023-03-01T07:56:18;37.90;;;19.33;;
48993;SDS011;34804;49.214;12.276;2023-03-01T07:58:45;35.58;;;18.45;;
48993;SDS011;34804;49.214;12.276;2023-03-01T08:01:15;37.88;;;17.73;;
48993;SDS011;34804;49.214;12.276;2023-03-01T08:03:45;38.38;;;16.90;;
48993;SDS011;34804;49.214;12.276;2023-03-01T08:06:13;36.60;;;18.20;;
48993;SDS011;34804;49.214;12.276;2023-03-01T08:08:41;41.75;;;19.83;;
48993;SDS011;34804;49.214;12.276;2023-03-01T08:11:10;42.35;;;20.48;;
48993;SDS011;34804;49.214;12.276;2023-03-01T08:13:37;45.05;;;20.00;;
48993;SDS011;34804;49.214;12.276;2023-03-01T08:16:10;55.97;;;22.65;;
48993;SDS011;34804;49.214;12.276;2023-03-01T08:18:39;45.58;;;19.85;;
48993;SDS011;34804;49.214;12.276;2023-03-01T08:21:06;43.45;;;20.05;;
48993;SDS011;34804;49.214;12.276;2023-03-01T08:23:39;41.15;;;18.23;;
48993;SDS011;34804;49.214;12.276;2023-03-01T08:26:10;39.75;;;17.60;;
48993;SDS011;34804;49.214;12.276;2023-03-01T08:28:40;42.25;;;18.25;;
48993;SDS011;34804;49.214;12.276;2023-03-01T08:31:14;36.17;;;17.83;;
48993;SDS011;34804;49.214;12.276;2023-03-01T08:33:41;35.20;;;18.40;;
48993;SDS011;34804;49.214;12.276;2023-03-01T08:36:08;33.38;;;16.63;;
48993;SDS011;34804;49.214;12.276;2023-03-01T08:38:35;33.63;;;17.48;;
48993;SDS011;34804;49.214;12.276;2023-03-01T08:41:02;30.40;;;16.67;;
48993;SDS011;34804;49.214;12.276;2023-03-01T08:43:30;37.40;;;17.02;;
48993;SDS011;34804;49.214;12.276;2023-03-01T08:45:57;31.17;;;16.13;;
48993;SDS011;34804;49.214;12.276;2023-03-01T08:48:24;30.58;;;17.67;;
48993;SDS011;34804;49.214;12.276;2023-03-01T08:50:53;30.92;;;15.77;;
48993;SDS011;34804;49.214;12.276;2023-03-01T08:53:20;30.20;;;15.77;;
48993;SDS011;34804;49.214;12.276;2023-03-01T08:55:46;28.38;;;14.55;;
48993;SDS011;34804;49.214;12.276;2023-03-01T08:58:15;29.95;;;14.73;;
48993;SDS011;34804;49.214;12.276;2023-03-01T09:00:42;27.83;;;13.90;;
48993;SDS011;34804;49.214;12.276;2023-03-01T09:03:09;26.20;;;14.05;;
48993;SDS011;34804;49.214;12.276;2023-03-01T09:05:36;32.45;;;16.15;;
48993;SDS011;34804;49.214;12.276;2023-03-01T09:08:03;26.45;;;13.80;;
48993;SDS011;34804;49.214;12.276;2023-03-01T09:10:30;25.17;;;13.52;;
48993;SDS011;34804;49.214;12.276;2023-03-01T09:12:57;28.63;;;13.20;;
48993;SDS011;34804;49.214;12.276;2023-03-01T09:15:23;28.85;;;14.77;;
48993;SDS011;34804;49.214;12.276;2023-03-01T09:17:51;34.25;;;16.92;;
48993;SDS011;34804;49.214;12.276;2023-03-01T09:20:18;28.75;;;15.23;;
48993;SDS011;34804;49.214;12.276;2023-03-01T09:22:45;28.95;;;16.05;;
48993;SDS011;34804;49.214;12.276;2023-03-01T09:25:12;28.02;;;14.77;;
48993;SDS011;34804;49.214;12.276;2023-03-01T09:27:38;29.65;;;15.30;;
48993;SDS011;34804;49.214;12.276;2023-03-01T09:30:05;26.98;;;14.57;;
48993;SDS011;34804;49.214;12.276;2023-03-01T09:32:33;27.80;;;13.65;;
48993;SDS011;34804;49.214;12.276;2023-03-01T09:35:00;35.25;;;15.45;;
48993;SDS011;34804;49.214;12.276;2023-03-01T09:37:27;28.95;;;15.93;;
48993;SDS011;34804;49.214;12.276;2023-03-01T09:39:54;24.42;;;13.45;;
48993;SDS011;34804;49.214;12.276;2023-03-01T09:42:21;30.80;;;15.45;;
48993;SDS011;34804;49.214;12.276;2023-03-01T09:44:52;27.05;;;14.07;;
48993;SDS011;34804;49.214;12.276;2023-03-01T09:47:24;26.45;;;13.90;;
48993;SDS011;34804;49.214;12.276;2023-03-01T09:50:02;26.92;;;14.43;;
48993;SDS011;34804;49.214;12.276;2023-03-01T09:52:33;25.70;;;13.15;;
48993;SDS011;34804;49.214;12.276;2023-03-01T09:55:25;22.40;;;13.18;;
48993;SDS011;34804;49.214;12.276;2023-03-01T09:58:18;22.85;;;13.02;;
48993;SDS011;34804;49.214;12.276;2023-03-01T10:03:44;30.73;;;14.65;;
48993;SDS011;34804;49.214;12.276;2023-03-01T10:06:29;25.10;;;14.48;;
48993;SDS011;34804;49.214;12.276;2023-03-01T10:11:36;23.50;;;13.07;;
48993;SDS011;34804;49.214;12.276;2023-03-01T10:14:28;24.85;;;14.70;;
48993;SDS011;34804;49.214;12.276;2023-03-01T10:17:18;25.17;;;14.00;;
48993;SDS011;34804;49.214;12.276;2023-03-01T10:19:47;29.60;;;14.95;;
48993;SDS011;34804;49.214;12.276;2023-03-01T10:22:16;23.58;;;12.73;;
48993;SDS011;34804;49.214;12.276;2023-03-01T10:24:48;20.85;;;11.98;;
48993;SDS011;34804;49.214;12.276;2023-03-01T10:32:39;21.35;;;11.10;;
48993;SDS011;34804;49.214;12.276;2023-03-01T10:35:16;20.95;;;10.77;;
48993;SDS011;34804;49.214;12.276;2023-03-01T10:37:58;23.33;;;11.40;;
48993;SDS011;34804;49.214;12.276;2023-03-01T10:40:29;21.77;;;12.10;;
48993;SDS011;34804;49.214;12.276;2023-03-01T10:42:58;19.38;;;11.35;;
48993;SDS011;34804;49.214;12.276;2023-03-01T10:45:37;22.43;;;12.33;;
48993;SDS011;34804;49.214;12.276;2023-03-01T10:50:46;20.65;;;11.70;;
48993;SDS011;34804;49.214;12.276;2023-03-01T10:53:26;20.52;;;11.35;;
48993;SDS011;34804;49.214;12.276;2023-03-01T10:55:59;20.50;;;11.45;;
48993;SDS011;34804;49.214;12.276;2023-03-01T10:58:27;20.20;;;11.63;;
48993;SDS011;34804;49.214;12.276;2023-03-01T11:00:59;21.50;;;11.77;;
48993;SDS011;34804;49.214;12.276;2023-03-01T11:03:29;20.55;;;11.52;;
48993;SDS011;34804;49.214;12.276;2023-03-01T11:05:59;24.38;;;12.00;;
48993;SDS011;34804;49.214;12.276;2023-03-01T11:08:39;25.63;;;12.25;;
48993;SDS011;34804;49.214;12.276;2023-03-01T11:13:51;21.35;;;11.80;;
48993;SDS011;34804;49.214;12.276;2023-03-01T11:16:26;23.35;;;12.38;;
48993;SDS011;34804;49.214;12.276;2023-03-01T11:18:56;21.00;;;11.32;;
48993;SDS011;34804;49.214;12.276;2023-03-01T11:21:30;23.00;;;11.85;;
48993;SDS011;34804;49.214;12.276;2023-03-01T11:24:00;19.02;;;11.02;;
48993;SDS011;34804;49.214;12.276;2023-03-01T11:26:28;21.13;;;11.35;;
48993;SDS011;34804;49.214;12.276;2023-03-01T11:28:58;19.58;;;11.73;;
48993;SDS011;34804;49.214;12.276;2023-03-01T11:31:30;19.63;;;11.88;;
48993;SDS011;34804;49.214;12.276;2023-03-01T11:33:59;21.42;;;12.60;;
48993;SDS011;34804;49.214;12.276;2023-03-01T11:36:54;21.58;;;11.98;;
48993;SDS011;34804;49.214;12.276;2023-03-01T11:39:36;23.15;;;12.82;;
48993;SDS011;34804;49.214;12.276;2023-03-01T11:42:34;24.08;;;14.63;;
48993;SDS011;34804;49.214;12.276;2023-03-01T11:45:12;23.27;;;14.25;;
48993;SDS011;34804;49.214;12.276;2023-03-01T11:47:47;24.10;;;14.18;;
48993;SDS011;34804;49.214;12.276;2023-03-01T11:53:47;25.63;;;15.10;;
48993;SDS011;34804;49.214;12.276;2023-03-01T12:15:06;24.10;;;13.10;;
48993;SDS011;34804;49.214;12.276;2023-03-01T12:18:07;26.13;;;13.98;;
48993;SDS011;34804;49.214;12.276;2023-03-01T12:21:10;23.08;;;13.63;;
48993;SDS011;34804;49.214;12.276;2023-03-01T12:24:10;23.48;;;13.40;;
48993;SDS011;34804;49.214;12.276;2023-03-01T12:27:21;26.10;;;13.88;;
48993;SDS011;34804;49.214;12.276;2023-03-01T12:30:16;22.08;;;13.13;;
48993;SDS011;34804;49.214;12.276;2023-03-01T12:33:05;22.75;;;13.65;;
48993;SDS011;34804;49.214;12.276;2023-03-01T12:41:32;22.08;;;14.55;;
48993;SDS011;34804;49.214;12.276;2023-03-01T12:44:11;21.95;;;13.82;;
48993;SDS011;34804;49.214;12.276;2023-03-01T12:49:48;22.27;;;14.07;;
48993;SDS011;34804;49.214;12.276;2023-03-01T12:55:02;24.33;;;15.52;;
48993;SDS011;34804;49.214;12.276;2023-03-01T12:57:46;30.10;;;17.08;;
48993;SDS011;34804;49.214;12.276;2023-03-01T13:02:58;26.85;;;16.67;;
48993;SDS011;34804;49.214;12.276;2023-03-01T13:05:39;26.73;;;15.40;;
48993;SDS011;34804;49.214;12.276;2023-03-01T13:08:23;26.02;;;15.82;;
48993;SDS011;34804;49.214;12.276;2023-03-01T13:11:06;24.38;;;15.48;;
48993;SDS011;34804;49.214;12.276;2023-03-01T13:13:43;25.25;;;16.35;;
48993;SDS011;34804;49.214;12.276;2023-03-01T13:19:15;27.65;;;16.13;;
48993;SDS011;34804;49.214;12.276;2023-03-01T13:21:44;23.75;;;15.50;;
48993;SDS011;34804;49.214;12.276;2023-03-01T13:29:50;25.67;;;15.32;;
48993;SDS011;34804;49.214;12.276;2023-03-01T13:32:25;26.85;;;17.10;;
48993;SDS011;34804;49.214;12.276;2023-03-01T13:37:46;25.60;;;16.03;;
48993;SDS011;34804;49.214;12.276;2023-03-01T13:45:34;24.73;;;15.73;;
48993;SDS011;34804;49.214;12.276;2023-03-01T13:50:47;23.75;;;15.23;;
48993;SDS011;34804;49.214;12.276;2023-03-01T13:53:36;26.02;;;15.43;;
48993;SDS011;34804;49.214;12.276;2023-03-01T13:59:05;25.35;;;15.75;;
48993;SDS011;34804;49.214;12.276;2023-03-01T14:01:41;23.45;;;14.90;;
48993;SDS011;34804;49.214;12.276;2023-03-01T14:04:21;26.80;;;15.93;;
48993;SDS011;34804;49.214;12.276;2023-03-01T14:07:16;23.27;;;14.35;;
48993;SDS011;34804;49.214;12.276;2023-03-01T14:09:56;22.02;;;13.48;;
48993;SDS011;34804;49.214;12.276;2023-03-01T14:15:02;20.52;;;12.48;;
48993;SDS011;34804;49.214;12.276;2023-03-01T14:17:39;18.63;;;11.98;;
48993;SDS011;34804;49.214;12.276;2023-03-01T14:20:21;20.15;;;11.90;;
48993;SDS011;34804;49.214;12.276;2023-03-01T14:22:54;19.95;;;12.20;;
48993;SDS011;34804;49.214;12.276;2023-03-01T14:25:32;20.58;;;12.27;;
48993;SDS011;34804;49.214;12.276;2023-03-01T14:28:04;22.00;;;13.07;;
48993;SDS011;34804;49.214;12.276;2023-03-01T14:30:43;19.73;;;11.65;;
48993;SDS011;34804;49.214;12.276;2023-03-01T14:33:19;19.65;;;12.10;;
48993;SDS011;34804;49.214;12.276;2023-03-01T14:38:39;19.25;;;12.15;;
48993;SDS011;34804;49.214;12.276;2023-03-01T14:41:09;21.37;;;13.03;;
48993;SDS011;34804;49.214;12.276;2023-03-01T14:43:40;18.98;;;13.02;;
48993;SDS011;34804;49.214;12.276;2023-03-01T14:46:17;21.02;;;13.02;;
48993;SDS011;34804;49.214;12.276;2023-03-01T14:49:15;19.95;;;13.15;;
48993;SDS011;34804;49.214;12.276;2023-03-01T14:51:57;19.45;;;12.57;;
48993;SDS011;34804;49.214;12.276;2023-03-01T14:54:47;19.38;;;14.25;;
48993;SDS011;34804;49.214;12.276;2023-03-01T14:57:15;17.70;;;12.10;;
48993;SDS011;34804;49.214;12.276;2023-03-01T14:59:48;21.00;;;12.50;;
48993;SDS011;34804;49.214;12.276;2023-03-01T15:02:19;20.23;;;12.65;;
48993;SDS011;34804;49.214;12.276;2023-03-01T15:04:50;19.25;;;12.88;;
48993;SDS011;34804;49.214;12.276;2023-03-01T15:07:20;20.33;;;12.70;;
48993;SDS011;34804;49.214;12.276;2023-03-01T15:09:47;20.35;;;13.35;;
48993;SDS011;34804;49.214;12.276;2023-03-01T15:14:54;22.85;;;12.82;;
48993;SDS011;34804;49.214;12.276;2023-03-01T15:20:06;19.80;;;13.25;;
48993;SDS011;34804;49.214;12.276;2023-03-01T15:22:43;18.67;;;12.82;;
48993;SDS011;34804;49.214;12.276;2023-03-01T15:25:16;18.65;;;12.82;;
48993;SDS011;34804;49.214;12.276;2023-03-01T15:27:51;18.98;;;12.52;;
48993;SDS011;34804;49.214;12.276;2023-03-01T15:30:23;21.05;;;12.88;;
48993;SDS011;34804;49.214;12.276;2023-03-01T15:38:59;22.90;;;13.20;;
48993;SDS011;34804;49.214;12.276;2023-03-01T15:41:38;21.67;;;14.00;;
48993;SDS011;34804;49.214;12.276;2023-03-01T15:44:16;22.85;;;12.80;;
48993;SDS011;34804;49.214;12.276;2023-03-01T15:46:55;22.88;;;13.43;;
48993;SDS011;34804;49.214;12.276;2023-03-01T15:49:36;20.52;;;12.70;;
48993;SDS011;34804;49.214;12.276;2023-03-01T15:52:24;17.80;;;11.57;;
48993;SDS011;34804;49.214;12.276;2023-03-01T15:54:58;20.67;;;12.48;;
48993;SDS011;34804;49.214;12.276;2023-03-01T15:57:27;22.92;;;13.18;;
48993;SDS011;34804;49.214;12.276;2023-03-01T15:59:55;21.55;;;12.30;;
48993;SDS011;34804;49.214;12.276;2023-03-01T16:02:22;26.20;;;13.02;;
48993;SDS011;34804;49.214;12.276;2023-03-01T16:04:50;24.15;;;14.43;;
48993;SDS011;34804;49.214;12.276;2023-03-01T16:07:17;21.02;;;13.57;;
48993;SDS011;34804;49.214;12.276;2023-03-01T16:09:44;22.48;;;13.65;;
48993;SDS011;34804;49.214;12.276;2023-03-01T16:12:14;23.45;;;13.23;;
48993;SDS011;34804;49.214;12.276;2023-03-01T16:14:42;23.90;;;13.70;;
48993;SDS011;34804;49.214;12.276;2023-03-01T16:17:09;22.98;;;13.68;;
48993;SDS011;34804;49.214;12.276;2023-03-01T16:19:39;26.40;;;13.30;;
48993;SDS011;34804;49.214;12.276;2023-03-01T16:22:09;25.55;;;13.95;;
48993;SDS011;34804;49.214;12.276;2023-03-01T16:24:36;23.05;;;13.43;;